Time;durP1;ratioP1;P1;durP2;ratioP2;P2;SDS_P1;SDS_P2;PMS_P1;PMS_P2;Temp;Humidity;BMP_temperature;BMP_pressure;BME280_temperature;BME280_humidity;BME280_pressure;Samples;Min_cycle;Max_cycle;Signal;HPM_P1;HPM_P2
2021/06/05 00:02:18;;;;;;;24.00;19.60;;;;;;;;;;5032346;28;20402;-52
2021/06/05 00:04:44;;;;;;;26.50;21.50;;;;;;;;;;5032512;28;20409;-52
2021/06/05 00:07:10;;;;;;;36.10;21.17;;;;;;;;;;5032751;28;20402;-52
2021/06/05 00:09:36;;;;;;;24.93;21.30;;;;;;;;;;5032372;28;20803;-52
2021/06/05 00:12:02;;;;;;;25.03;21.63;;;;;;;;;;5032084;28;20446;-52
2021/06/05 00:14:28;;;;;;;28.63;21.47;;;;;;;;;;5032251;28;20405;-52
2021/06/05 00:16:54;;;;;;;25.10;19.97;;;;;;;;;;5031999;28;20398;-52
2021/06/05 00:19:21;;;;;;;31.13;21.10;;;;;;;;;;5031858;28;20426;-52
2021/06/05 00:21:48;;;;;;;32.77;20.03;;;;;;;;;;5031854;28;20409;-52
2021/06/05 00:24:16;;;;;;;26.50;18.63;;;;;;;;;;5032108;28;20418;-52
2021/06/05 00:26:42;;;;;;;22.70;19.43;;;;;;;;;;5031954;28;20450;-53
2021/06/05 00:29:08;;;;;;;20.40;18.00;;;;;;;;;;5032008;28;20950;-52
2021/06/05 00:31:34;;;;;;;25.10;16.20;;;;;;;;;;5031589;28;20894;-52
2021/06/05 00:33:59;;;;;;;18.50;16.77;;;;;;;;;;5031788;28;20422;-53
2021/06/05 00:36:26;;;;;;;34.80;19.13;;;;;;;;;;5030614;28;20544;-52
2021/06/05 00:38:54;;;;;;;22.97;18.27;;;;;;;;;;5032038;28;20429;-52
2021/06/05 00:41:20;;;;;;;26.80;18.20;;;;;;;;;;5031740;28;20773;-52
2021/06/05 00:43:47;;;;;;;21.87;18.27;;;;;;;;;;5031639;28;20497;-51
2021/06/05 00:46:15;;;;;;;24.90;19.00;;;;;;;;;;5031672;28;20409;-52
2021/06/05 00:48:40;;;;;;;25.63;18.20;;;;;;;;;;5031641;28;20501;-53
2021/06/05 00:51:07;;;;;;;28.13;21.27;;;;;;;;;;5031522;28;20933;-52
2021/06/05 00:53:33;;;;;;;26.83;21.20;;;;;;;;;;5031185;28;20770;-53
2021/06/05 00:56:00;;;;;;;23.80;19.00;;;;;;;;;;5031582;28;20398;-52
2021/06/05 00:58:27;;;;;;;19.90;17.80;;;;;;;;;;5031345;28;20422;-52
2021/06/05 01:00:55;;;;;;;21.87;18.83;;;;;;;;;;5031126;28;20448;-53
2021/06/05 01:03:21;;;;;;;29.03;21.20;;;;;;;;;;5030626;28;20410;-52
2021/06/05 01:05:49;;;;;;;26.30;20.87;;;;;;;;;;5030906;28;20744;-52
2021/06/05 01:08:20;;;;;;;33.43;22.57;;;;;;;;;;5031144;28;20942;-54
2021/06/05 01:10:47;;;;;;;31.43;19.70;;;;;;;;;;5031235;28;20464;-52
2021/06/05 01:13:19;;;;;;;29.20;22.83;;;;;;;;;;5030881;28;20956;-52
2021/06/05 01:15:49;;;;;;;36.00;24.77;;;;;;;;;;5030979;28;20917;-52
2021/06/05 01:18:30;;;;;;;33.40;22.40;;;;;;;;;;5031230;28;20444;-52
2021/06/05 01:21:11;;;;;;;28.83;22.43;;;;;;;;;;5031424;28;20464;-53
2021/06/05 01:23:40;;;;;;;32.40;23.40;;;;;;;;;;5030796;28;20408;-52
2021/06/05 01:26:10;;;;;;;39.10;28.53;;;;;;;;;;5031036;28;20417;-52
2021/06/05 01:28:48;;;;;;;39.07;26.63;;;;;;;;;;5030936;28;20411;-52
2021/06/05 01:31:17;;;;;;;36.93;26.17;;;;;;;;;;5030089;28;20453;-51
2021/06/05 01:33:44;;;;;;;31.97;25.03;;;;;;;;;;5030653;28;20410;-52
2021/06/05 01:36:11;;;;;;;44.80;26.30;;;;;;;;;;5031269;28;20406;-52
2021/06/05 01:38:38;;;;;;;38.47;26.70;;;;;;;;;;5030827;28;20425;-53
2021/06/05 01:41:04;;;;;;;37.53;26.70;;;;;;;;;;5030931;28;20399;-52
2021/06/05 01:43:31;;;;;;;55.70;27.40;;;;;;;;;;5030589;28;20489;-52
2021/06/05 01:45:58;;;;;;;35.00;26.40;;;;;;;;;;5030753;28;20413;-52
2021/06/05 01:48:24;;;;;;;34.73;26.87;;;;;;;;;;5030669;28;20679;-52
2021/06/05 01:50:51;;;;;;;36.30;27.30;;;;;;;;;;5030786;28;20745;-52
2021/06/05 01:53:20;;;;;;;41.63;28.70;;;;;;;;;;5030537;28;20413;-52
2021/06/05 01:55:55;;;;;;;37.67;27.00;;;;;;;;;;5030556;28;20409;-52
2021/06/05 01:58:23;;;;;;;40.23;27.13;;;;;;;;;;5030763;28;20422;-52
2021/06/05 02:00:50;;;;;;;34.10;24.27;;;;;;;;;;5030890;28;20385;-52
2021/06/05 02:03:17;;;;;;;33.77;26.57;;;;;;;;;;5030635;28;20398;-52
2021/06/05 02:05:43;;;;;;;31.93;25.33;;;;;;;;;;5031012;28;20489;-52
2021/06/05 02:08:12;;;;;;;34.70;25.20;;;;;;;;;;5030493;28;20402;-52
2021/06/05 02:10:38;;;;;;;41.80;26.03;;;;;;;;;;5030587;28;20410;-52
2021/06/05 02:13:05;;;;;;;35.13;24.37;;;;;;;;;;5030091;28;20454;-53
2021/06/05 02:15:36;;;;;;;44.83;26.93;;;;;;;;;;5030439;28;20501;-52
2021/06/05 02:18:04;;;;;;;40.57;24.87;;;;;;;;;;5030247;28;20762;-52
2021/06/05 02:20:33;;;;;;;39.87;25.03;;;;;;;;;;5030505;28;20875;-52
2021/06/05 02:23:01;;;;;;;45.07;28.60;;;;;;;;;;5030079;28;20434;-52
2021/06/05 02:25:28;;;;;;;47.47;29.50;;;;;;;;;;5030387;28;20415;-52
2021/06/05 02:27:55;;;;;;;49.33;28.67;;;;;;;;;;5030169;28;20442;-52
2021/06/05 02:30:21;;;;;;;42.97;28.27;;;;;;;;;;5030277;28;20834;-53
2021/06/05 02:32:48;;;;;;;46.20;28.83;;;;;;;;;;5030063;28;20516;-54
2021/06/05 02:35:20;;;;;;;47.00;30.73;;;;;;;;;;5030943;28;20399;-52
2021/06/05 02:37:47;;;;;;;44.33;30.47;;;;;;;;;;5030311;28;20894;-52
2021/06/05 02:40:15;;;;;;;41.97;27.00;;;;;;;;;;5030080;28;20769;-52
2021/06/05 02:42:41;;;;;;;36.60;26.20;;;;;;;;;;5033514;28;20380;-53
2021/06/05 02:45:13;;;;;;;38.70;27.13;;;;;;;;;;5033912;28;20405;-53
2021/06/05 02:47:39;;;;;;;38.93;26.30;;;;;;;;;;5034038;28;20402;-53
2021/06/05 02:50:09;;;;;;;38.17;27.73;;;;;;;;;;5033999;28;20430;-52
2021/06/05 02:52:38;;;;;;;38.00;26.40;;;;;;;;;;5033564;28;20449;-54
2021/06/05 02:55:12;;;;;;;33.37;24.60;;;;;;;;;;5033682;28;20937;-52
2021/06/05 02:57:38;;;;;;;38.00;24.43;;;;;;;;;;5033721;28;20760;-52
2021/06/05 03:00:11;;;;;;;37.33;26.23;;;;;;;;;;5033709;28;20475;-52
2021/06/05 03:02:37;;;;;;;32.03;24.47;;;;;;;;;;5033576;28;20384;-52
2021/06/05 03:05:04;;;;;;;33.40;25.37;;;;;;;;;;5033726;28;21045;-52
2021/06/05 03:07:30;;;;;;;33.97;25.10;;;;;;;;;;5033640;28;20501;-52
2021/06/05 03:09:56;;;;;;;29.80;23.00;;;;;;;;;;5033331;28;20787;-52
2021/06/05 03:12:24;;;;;;;33.27;23.33;;;;;;;;;;5033234;28;20869;-52
2021/06/05 03:14:50;;;;;;;38.70;23.37;;;;;;;;;;5033435;28;20405;-52
2021/06/05 03:17:16;;;;;;;32.23;23.57;;;;;;;;;;5033312;28;20463;-52
2021/06/05 03:19:42;;;;;;;32.73;23.07;;;;;;;;;;5033277;28;20476;-52
2021/06/05 03:22:08;;;;;;;36.00;23.90;;;;;;;;;;5032902;28;20404;-52
2021/06/05 03:24:34;;;;;;;36.67;24.30;;;;;;;;;;5033213;28;20486;-52
2021/06/05 03:27:01;;;;;;;32.87;24.10;;;;;;;;;;5033078;28;20750;-54
2021/06/05 03:29:27;;;;;;;32.17;23.50;;;;;;;;;;5033183;28;20835;-52
2021/06/05 03:31:54;;;;;;;39.70;25.00;;;;;;;;;;5032826;28;20853;-52
2021/06/05 03:34:20;;;;;;;38.20;23.97;;;;;;;;;;5033028;28;20488;-53
2021/06/05 03:36:46;;;;;;;30.80;23.00;;;;;;;;;;5032939;28;20394;-52
2021/06/05 03:39:12;;;;;;;31.77;23.17;;;;;;;;;;5033039;28;20430;-53
2021/06/05 03:41:40;;;;;;;34.50;23.80;;;;;;;;;;5032653;28;20406;-53
2021/06/05 03:44:06;;;;;;;38.20;25.27;;;;;;;;;;5032892;28;20879;-54
2021/06/05 03:46:32;;;;;;;35.30;22.87;;;;;;;;;;5032988;28;20435;-53
2021/06/05 03:48:58;;;;;;;33.00;23.80;;;;;;;;;;5032879;28;20453;-52
2021/06/05 03:51:24;;;;;;;34.87;24.20;;;;;;;;;;5032750;28;20466;-52
2021/06/05 03:53:50;;;;;;;39.13;25.00;;;;;;;;;;5032239;28;20425;-52
2021/06/05 03:56:16;;;;;;;39.43;24.70;;;;;;;;;;5033091;28;20434;-52
2021/06/05 03:58:44;;;;;;;36.40;25.57;;;;;;;;;;5032905;28;20446;-52
2021/06/05 04:01:20;;;;;;;43.00;23.73;;;;;;;;;;5033002;28;20414;-52
2021/06/05 04:03:46;;;;;;;48.70;27.00;;;;;;;;;;5031234;28;20902;-52
2021/06/05 04:06:13;;;;;;;45.37;27.17;;;;;;;;;;5032769;28;20407;-52
2021/06/05 04:08:39;;;;;;;54.90;28.63;;;;;;;;;;5032270;28;20508;-52
2021/06/05 04:11:05;;;;;;;58.23;27.97;;;;;;;;;;5032307;28;20446;-54
2021/06/05 04:13:32;;;;;;;63.00;31.77;;;;;;;;;;5031998;28;20771;-53
2021/06/05 04:15:58;;;;;;;57.33;28.07;;;;;;;;;;5032392;28;20425;-52
2021/06/05 04:18:30;;;;;;;58.80;30.03;;;;;;;;;;5032156;28;20492;-52
2021/06/05 04:20:56;;;;;;;62.80;29.43;;;;;;;;;;5032238;28;20417;-52
2021/06/05 04:23:22;;;;;;;61.40;30.00;;;;;;;;;;5031965;28;20781;-52
2021/06/05 04:25:49;;;;;;;62.33;29.60;;;;;;;;;;5032067;28;20482;-52
2021/06/05 04:28:15;;;;;;;55.50;28.90;;;;;;;;;;5032021;28;20476;-52
2021/06/05 04:30:43;;;;;;;56.77;30.17;;;;;;;;;;5031819;28;20429;-53
2021/06/05 04:33:10;;;;;;;53.53;29.80;;;;;;;;;;5031680;28;20464;-51
2021/06/05 04:35:36;;;;;;;53.63;29.40;;;;;;;;;;5031779;28;20418;-52
2021/06/05 04:38:02;;;;;;;56.90;29.77;;;;;;;;;;5030777;28;20402;-52
2021/06/05 04:40:28;;;;;;;65.27;32.60;;;;;;;;;;5031711;28;20399;-52
2021/06/05 04:42:54;;;;;;;58.40;30.30;;;;;;;;;;5031633;28;20478;-52
2021/06/05 04:45:20;;;;;;;57.53;31.27;;;;;;;;;;5031656;28;20384;-52
2021/06/05 04:47:46;;;;;;;53.80;28.63;;;;;;;;;;5031638;28;20395;-52
2021/06/05 04:50:13;;;;;;;57.80;29.60;;;;;;;;;;5031727;28;20487;-52
2021/06/05 04:52:39;;;;;;;58.93;32.80;;;;;;;;;;5031223;28;20500;-52
2021/06/05 04:55:06;;;;;;;54.00;28.87;;;;;;;;;;5031707;28;20802;-52
2021/06/05 04:57:32;;;;;;;61.80;30.30;;;;;;;;;;5031397;28;20377;-52
2021/06/05 04:59:58;;;;;;;63.97;30.33;;;;;;;;;;5031455;28;20426;-52
2021/06/05 05:02:27;;;;;;;65.83;30.27;;;;;;;;;;5031040;28;20765;-52
2021/06/05 05:04:53;;;;;;;63.27;30.00;;;;;;;;;;5030553;28;20457;-53
2021/06/05 05:07:19;;;;;;;62.53;31.13;;;;;;;;;;5031427;28;20402;-53
2021/06/05 05:09:45;;;;;;;56.50;29.13;;;;;;;;;;5031504;28;20393;-54
2021/06/05 05:12:12;;;;;;;54.57;29.97;;;;;;;;;;5030975;28;20500;-53
2021/06/05 05:14:38;;;;;;;54.40;30.27;;;;;;;;;;5031272;28;20434;-53
2021/06/05 05:17:04;;;;;;;59.03;31.07;;;;;;;;;;5031032;28;20434;-52
2021/06/05 05:19:30;;;;;;;65.97;30.97;;;;;;;;;;5031083;28;20522;-52
2021/06/05 05:21:56;;;;;;;62.00;29.17;;;;;;;;;;5030971;28;20941;-52
2021/06/05 05:24:22;;;;;;;54.13;27.97;;;;;;;;;;5030893;28;20825;-53
2021/06/05 05:26:48;;;;;;;55.70;29.20;;;;;;;;;;5031011;28;20410;-52
2021/06/05 05:29:14;;;;;;;64.50;31.37;;;;;;;;;;5030777;28;20433;-52
2021/06/05 05:31:42;;;;;;;60.27;30.20;;;;;;;;;;5030702;28;20446;-53
2021/06/05 05:34:08;;;;;;;62.03;31.53;;;;;;;;;;5030887;28;20425;-52
2021/06/05 05:36:35;;;;;;;61.53;30.77;;;;;;;;;;5031029;28;20776;-52
2021/06/05 05:39:02;;;;;;;65.37;31.70;;;;;;;;;;5030590;28;20502;-52
2021/06/05 05:41:28;;;;;;;63.60;31.00;;;;;;;;;;5030749;28;20413;-52
2021/06/05 05:43:55;;;;;;;52.47;28.30;;;;;;;;;;5030539;28;20882;-52
2021/06/05 05:46:22;;;;;;;61.97;31.93;;;;;;;;;;5031038;28;20824;-53
2021/06/05 05:48:49;;;;;;;54.33;30.50;;;;;;;;;;5030537;28;20460;-52
2021/06/05 05:51:16;;;;;;;67.77;32.10;;;;;;;;;;5030421;28;20976;-53
2021/06/05 05:53:42;;;;;;;57.90;31.50;;;;;;;;;;5030624;28;20768;-52
2021/06/05 05:56:10;;;;;;;58.83;31.53;;;;;;;;;;5031062;28;20837;-52
2021/06/05 05:58:40;;;;;;;58.10;30.97;;;;;;;;;;5030504;28;20465;-54
2021/06/05 06:01:08;;;;;;;60.60;32.97;;;;;;;;;;5030547;28;20902;-52
2021/06/05 06:03:35;;;;;;;52.80;30.00;;;;;;;;;;5030403;28;20406;-52
2021/06/05 06:06:01;;;;;;;54.90;32.10;;;;;;;;;;5029730;28;20399;-51
2021/06/05 06:08:27;;;;;;;51.50;29.97;;;;;;;;;;5029987;28;20778;-52
2021/06/05 06:10:54;;;;;;;59.17;32.73;;;;;;;;;;5028267;28;20425;-52
2021/06/05 06:13:21;;;;;;;60.93;34.57;;;;;;;;;;5029764;28;20441;-53
2021/06/05 06:15:47;;;;;;;57.53;32.00;;;;;;;;;;5029424;28;20410;-52
2021/06/05 06:18:13;;;;;;;62.30;35.40;;;;;;;;;;5034390;28;20814;-51
2021/06/05 06:20:44;;;;;;;57.77;35.63;;;;;;;;;;5034509;28;20379;-52
2021/06/05 06:23:11;;;;;;;60.90;34.63;;;;;;;;;;5033953;28;20402;-52
2021/06/05 06:25:39;;;;;;;59.07;34.80;;;;;;;;;;5034449;28;20402;-52
2021/06/05 06:28:10;;;;;;;60.80;33.53;;;;;;;;;;5034597;28;20418;-52
2021/06/05 06:30:37;;;;;;;58.07;33.77;;;;;;;;;;5034663;28;20476;-52
2021/06/05 06:33:05;;;;;;;61.67;33.57;;;;;;;;;;5034157;28;20522;-52
2021/06/05 06:35:32;;;;;;;62.00;34.70;;;;;;;;;;5033437;28;20426;-53
2021/06/05 06:37:58;;;;;;;65.40;35.43;;;;;;;;;;5046448;28;20415;-52
2021/06/05 06:40:26;;;;;;;66.97;36.43;;;;;;;;;;5055366;28;20900;-54
2021/06/05 06:42:53;;;;;;;63.60;35.53;;;;;;;;;;5055547;28;20401;-54
2021/06/05 06:45:19;;;;;;;62.30;34.63;;;;;;;;;;5054957;28;20401;-54
2021/06/05 06:47:44;;;;;;;53.30;31.63;;;;;;;;;;5054347;28;20950;-54
2021/06/05 06:50:12;;;;;;;51.60;30.60;;;;;;;;;;5054320;28;21077;-53
2021/06/05 06:52:38;;;;;;;63.47;35.37;;;;;;;;;;5052363;28;20445;-53
2021/06/05 06:55:05;;;;;;;51.03;31.10;;;;;;;;;;5053879;28;20885;-53
2021/06/05 06:57:31;;;;;;;57.10;33.30;;;;;;;;;;5054021;28;20436;-53
2021/06/05 06:59:57;;;;;;;58.87;32.63;;;;;;;;;;5053905;28;20511;-53
2021/06/05 07:02:23;;;;;;;56.90;33.47;;;;;;;;;;5053697;28;20427;-53
2021/06/05 07:04:51;;;;;;;55.90;32.07;;;;;;;;;;5053837;28;20405;-54
2021/06/05 07:07:17;;;;;;;58.53;33.70;;;;;;;;;;5053692;28;20436;-53
2021/06/05 07:09:43;;;;;;;56.30;32.50;;;;;;;;;;5053524;28;20936;-54
2021/06/05 07:12:09;;;;;;;54.53;32.13;;;;;;;;;;5053502;28;20554;-54
2021/06/05 07:14:35;;;;;;;60.50;31.77;;;;;;;;;;5053589;28;20397;-53
2021/06/05 07:17:02;;;;;;;52.67;32.00;;;;;;;;;;5053647;28;20924;-54
2021/06/05 07:19:28;;;;;;;63.60;35.23;;;;;;;;;;5053460;28;20414;-53
2021/06/05 07:21:54;;;;;;;62.33;34.20;;;;;;;;;;5052284;28;20817;-54
2021/06/05 07:24:20;;;;;;;56.00;34.20;;;;;;;;;;5053903;28;20441;-54
2021/06/05 07:26:46;;;;;;;62.87;35.00;;;;;;;;;;5053655;28;20444;-53
2021/06/05 07:29:12;;;;;;;59.00;34.87;;;;;;;;;;5053373;28;20432;-54
2021/06/05 07:31:51;;;;;;;63.30;34.97;;;;;;;;;;5053731;28;20456;-54
2021/06/05 07:34:18;;;;;;;53.87;30.97;;;;;;;;;;5054316;28;20425;-54
2021/06/05 07:36:48;;;;;;;62.43;34.43;;;;;;;;;;5054141;28;20486;-54
2021/06/05 07:39:16;;;;;;;56.67;31.07;;;;;;;;;;5054184;28;20491;-54
2021/06/05 07:41:42;;;;;;;58.50;32.03;;;;;;;;;;5053862;28;20431;-54
2021/06/05 07:44:11;;;;;;;51.43;31.80;;;;;;;;;;5054108;28;20409;-54
2021/06/05 07:46:44;;;;;;;54.13;31.77;;;;;;;;;;5054101;28;20487;-54
2021/06/05 07:49:11;;;;;;;59.43;30.90;;;;;;;;;;5054109;28;20421;-54
2021/06/05 07:51:37;;;;;;;55.50;32.80;;;;;;;;;;5053645;28;20498;-54
2021/06/05 07:54:03;;;;;;;63.27;32.13;;;;;;;;;;5054041;28;20865;-54
2021/06/05 07:56:29;;;;;;;60.83;33.30;;;;;;;;;;5054189;28;20913;-54
2021/06/05 07:58:55;;;;;;;60.23;31.97;;;;;;;;;;5053533;28;20417;-54
2021/06/05 08:01:25;;;;;;;63.63;31.33;;;;;;;;;;5053279;28;20455;-54
2021/06/05 08:03:51;;;;;;;62.27;31.43;;;;;;;;;;5053488;28;20961;-54
2021/06/05 08:06:17;;;;;;;51.77;29.10;;;;;;;;;;5053396;28;20428;-54
2021/06/05 08:08:44;;;;;;;55.23;29.77;;;;;;;;;;5053782;28;20429;-54
2021/06/05 08:11:12;;;;;;;56.33;33.00;;;;;;;;;;5052765;28;20437;-54
2021/06/05 08:13:38;;;;;;;59.50;32.13;;;;;;;;;;5052793;28;20503;-54
2021/06/05 08:16:04;;;;;;;54.93;30.53;;;;;;;;;;5053879;28;20885;-54
2021/06/05 08:18:30;;;;;;;62.97;32.00;;;;;;;;;;5053469;28;20426;-54
2021/06/05 08:20:59;;;;;;;54.70;30.57;;;;;;;;;;5053290;28;20379;-54
2021/06/05 08:23:27;;;;;;;60.13;32.67;;;;;;;;;;5053715;28;20401;-54
2021/06/05 08:25:53;;;;;;;55.67;30.97;;;;;;;;;;5053173;28;20904;-54
2021/06/05 08:28:23;;;;;;;53.23;31.73;;;;;;;;;;5053208;28;20418;-54
2021/06/05 08:30:49;;;;;;;54.73;30.53;;;;;;;;;;5053053;28;20492;-54
2021/06/05 08:33:16;;;;;;;62.10;33.07;;;;;;;;;;5053425;28;20499;-54
2021/06/05 08:35:42;;;;;;;54.20;31.73;;;;;;;;;;5054121;28;20893;-54
2021/06/05 08:38:09;;;;;;;54.20;30.30;;;;;;;;;;5053507;28;20394;-54
2021/06/05 08:40:47;;;;;;;60.73;33.23;;;;;;;;;;5053471;28;20408;-54
2021/06/05 08:43:21;;;;;;;49.13;29.20;;;;;;;;;;5053381;28;21006;-54
2021/06/05 08:45:47;;;;;;;55.27;33.67;;;;;;;;;;5053550;28;20493;-54
2021/06/05 08:48:15;;;;;;;56.53;31.63;;;;;;;;;;5053438;28;20429;-54
2021/06/05 08:50:41;;;;;;;53.67;32.73;;;;;;;;;;5053292;28;20444;-55
2021/06/05 08:53:26;;;;;;;53.07;32.63;;;;;;;;;;5053384;28;20495;-54
2021/06/05 08:55:54;;;;;;;51.67;31.63;;;;;;;;;;5053280;28;20401;-54
2021/06/05 08:58:45;;;;;;;58.67;33.07;;;;;;;;;;5053666;28;20468;-54
2021/06/05 09:01:20;;;;;;;57.03;32.17;;;;;;;;;;5053186;28;20455;-53
2021/06/05 09:03:47;;;;;;;48.83;30.33;;;;;;;;;;5052638;28;20400;-54
2021/06/05 09:06:18;;;;;;;54.47;31.40;;;;;;;;;;5053452;28;20405;-54
2021/06/05 09:08:44;;;;;;;49.80;30.33;;;;;;;;;;5052408;28;20492;-54
2021/06/05 09:11:11;;;;;;;51.57;31.30;;;;;;;;;;5052624;28;20901;-54
2021/06/05 09:13:37;;;;;;;49.20;28.83;;;;;;;;;;5052162;28;20397;-55
2021/06/05 09:16:23;;;;;;;55.03;31.97;;;;;;;;;;5052270;28;20401;-54
2021/06/05 09:18:50;;;;;;;50.70;32.10;;;;;;;;;;5051743;28;20494;-54
2021/06/05 09:21:24;;;;;;;54.77;32.90;;;;;;;;;;5052348;28;20409;-54
2021/06/05 09:23:50;;;;;;;46.33;31.20;;;;;;;;;;5051948;28;20401;-54
2021/06/05 09:26:19;;;;;;;46.50;29.97;;;;;;;;;;5053000;28;20712;-54
2021/06/05 09:28:45;;;;;;;55.97;33.03;;;;;;;;;;5052157;28;20459;-54
2021/06/05 09:31:13;;;;;;;54.33;32.43;;;;;;;;;;5053439;28;20771;-54
2021/06/05 09:33:39;;;;;;;50.50;31.57;;;;;;;;;;5052160;28;20491;-54
2021/06/05 09:36:19;;;;;;;59.47;32.10;;;;;;;;;;5053791;28;20401;-54
2021/06/05 09:38:47;;;;;;;56.10;32.77;;;;;;;;;;5054146;28;20405;-53
2021/06/05 09:41:18;;;;;;;51.00;30.23;;;;;;;;;;5053924;28;20461;-53
2021/06/05 09:43:47;;;;;;;52.37;31.00;;;;;;;;;;5054024;28;20896;-54
2021/06/05 09:46:22;;;;;;;45.30;29.77;;;;;;;;;;5054068;28;20394;-54
2021/06/05 09:48:50;;;;;;;48.27;28.37;;;;;;;;;;5052150;28;20990;-52
2021/06/05 09:51:31;;;;;;;48.20;27.07;;;;;;;;;;5049519;28;20531;-53
2021/06/05 09:54:12;;;;;;;47.00;28.80;;;;;;;;;;5051397;28;20459;-53
2021/06/05 09:56:44;;;;;;;44.70;28.60;;;;;;;;;;5051623;28;20408;-53
2021/06/05 09:59:16;;;;;;;36.23;24.10;;;;;;;;;;5051829;28;20424;-53
2021/06/05 10:01:44;;;;;;;36.47;24.83;;;;;;;;;;5051232;28;20406;-53
2021/06/05 10:04:13;;;;;;;37.07;24.57;;;;;;;;;;5051334;28;20397;-53
2021/06/05 10:06:51;;;;;;;45.67;26.80;;;;;;;;;;5050964;28;20481;-53
2021/06/05 10:09:30;;;;;;;35.93;25.23;;;;;;;;;;5051223;28;20432;-52
2021/06/05 10:11:58;;;;;;;41.30;26.53;;;;;;;;;;5051171;28;20482;-52
2021/06/05 10:14:45;;;;;;;36.90;24.90;;;;;;;;;;5051241;28;20402;-53
2021/06/05 10:17:20;;;;;;;44.03;27.57;;;;;;;;;;5051195;28;20500;-53
2021/06/05 10:19:52;;;;;;;43.77;27.90;;;;;;;;;;5051587;28;20424;-52
2021/06/05 10:22:18;;;;;;;51.33;27.73;;;;;;;;;;5051056;28;20505;-53
2021/06/05 10:25:03;;;;;;;43.93;27.63;;;;;;;;;;5051631;28;20413;-52
2021/06/05 10:27:32;;;;;;;41.37;28.80;;;;;;;;;;5051390;28;20393;-52
2021/06/05 10:30:04;;;;;;;44.40;29.30;;;;;;;;;;5051672;28;20417;-52
2021/06/05 10:32:32;;;;;;;45.87;28.43;;;;;;;;;;5051270;28;20487;-52
2021/06/05 10:35:01;;;;;;;37.80;26.10;;;;;;;;;;5051903;28;20421;-52
2021/06/05 10:37:29;;;;;;;50.70;26.10;;;;;;;;;;5051511;28;20465;-53
2021/06/05 10:39:56;;;;;;;39.10;26.50;;;;;;;;;;5051594;28;20417;-53
2021/06/05 10:42:24;;;;;;;38.87;26.80;;;;;;;;;;5051702;28;20405;-53
2021/06/05 10:44:51;;;;;;;43.93;27.03;;;;;;;;;;5051094;28;20401;-53
2021/06/05 10:47:17;;;;;;;41.50;25.97;;;;;;;;;;5051665;28;20856;-53
2021/06/05 10:49:48;;;;;;;44.27;28.27;;;;;;;;;;5050942;28;20515;-53
2021/06/05 10:52:17;;;;;;;41.67;26.27;;;;;;;;;;5050823;28;20937;-53
2021/06/05 10:54:50;;;;;;;40.23;26.73;;;;;;;;;;5050906;28;20499;-54
2021/06/05 10:57:19;;;;;;;34.50;24.70;;;;;;;;;;5051201;28;20401;-53
2021/06/05 10:59:48;;;;;;;32.50;23.93;;;;;;;;;;5050987;28;20443;-53
2021/06/05 11:02:33;;;;;;;35.87;23.40;;;;;;;;;;5051143;28;20421;-53
2021/06/05 11:05:00;;;;;;;38.83;22.43;;;;;;;;;;5055764;28;20398;-53
2021/06/05 11:07:30;;;;;;;29.00;23.27;;;;;;;;;;5055420;28;20405;-52
2021/06/05 11:09:58;;;;;;;32.63;22.77;;;;;;;;;;5056992;28;20507;-52
2021/06/05 11:12:27;;;;;;;33.43;23.60;;;;;;;;;;5057188;28;20456;-53
2021/06/05 11:14:54;;;;;;;39.17;22.70;;;;;;;;;;5056177;28;20469;-52
2021/06/05 11:17:28;;;;;;;31.50;21.03;;;;;;;;;;5056812;28;20492;-53
2021/06/05 11:20:14;;;;;;;27.63;21.10;;;;;;;;;;5056636;28;20409;-53
2021/06/05 11:22:53;;;;;;;27.83;20.80;;;;;;;;;;5055239;28;20425;-52
2021/06/05 11:25:36;;;;;;;20.77;16.93;;;;;;;;;;5056596;28;20408;-52
2021/06/05 11:28:19;;;;;;;24.73;18.20;;;;;;;;;;5056719;28;20415;-53
2021/06/05 11:30:45;;;;;;;24.37;17.83;;;;;;;;;;5056830;28;20412;-52
2021/06/05 11:33:11;;;;;;;26.90;19.30;;;;;;;;;;5056410;28;20568;-52
2021/06/05 11:35:57;;;;;;;26.03;19.00;;;;;;;;;;5055622;28;20430;-52
2021/06/05 11:38:23;;;;;;;29.53;19.63;;;;;;;;;;5055733;28;20425;-53
2021/06/05 11:40:52;;;;;;;25.53;18.80;;;;;;;;;;5054809;28;20402;-52
2021/06/05 11:43:31;;;;;;;28.80;20.17;;;;;;;;;;5054671;28;20459;-52
2021/06/05 11:46:03;;;;;;;30.10;21.20;;;;;;;;;;5054197;28;20413;-53
2021/06/05 11:48:38;;;;;;;29.47;20.30;;;;;;;;;;5054495;28;20441;-52
2021/06/05 11:51:17;;;;;;;29.17;19.87;;;;;;;;;;5054625;28;20412;-52
2021/06/05 11:53:45;;;;;;;27.20;19.90;;;;;;;;;;5054783;28;20403;-53
2021/06/05 11:56:11;;;;;;;28.77;18.80;;;;;;;;;;5054586;28;20417;-53
2021/06/05 11:58:38;;;;;;;27.87;19.70;;;;;;;;;;5054482;28;20425;-53
2021/06/05 12:01:06;;;;;;;28.70;20.40;;;;;;;;;;5054069;28;20493;-53
2021/06/05 12:03:45;;;;;;;29.20;20.90;;;;;;;;;;5053771;28;20413;-52
2021/06/05 12:06:31;;;;;;;29.30;20.73;;;;;;;;;;5054290;28;20437;-53
2021/06/05 12:09:06;;;;;;;27.03;19.87;;;;;;;;;;5053949;28;20619;-52
2021/06/05 12:11:38;;;;;;;24.23;19.33;;;;;;;;;;5053684;28;20503;-53
2021/06/05 12:14:13;;;;;;;27.63;20.70;;;;;;;;;;5053069;28;20436;-53
2021/06/05 12:16:44;;;;;;;26.50;20.67;;;;;;;;;;5053990;28;20400;-53
2021/06/05 12:19:10;;;;;;;25.70;20.33;;;;;;;;;;5053645;28;20425;-53
2021/06/05 12:21:39;;;;;;;32.20;20.83;;;;;;;;;;5053280;28;20437;-53
2021/06/05 12:24:13;;;;;;;26.80;19.67;;;;;;;;;;5053286;28;20454;-53
2021/06/05 12:26:46;;;;;;;30.93;21.80;;;;;;;;;;5053423;28;20401;-53
2021/06/05 12:29:14;;;;;;;32.60;23.70;;;;;;;;;;5048755;28;20444;-52
2021/06/05 12:31:42;;;;;;;37.80;26.23;;;;;;;;;;5044209;28;20460;-52
2021/06/05 12:34:13;;;;;;;35.43;25.20;;;;;;;;;;5051612;28;20425;-52
2021/06/05 12:36:43;;;;;;;37.13;26.10;;;;;;;;;;5051775;28;20404;-52
2021/06/05 12:39:15;;;;;;;42.73;29.10;;;;;;;;;;5051391;28;20421;-53
2021/06/05 12:41:43;;;;;;;49.37;29.60;;;;;;;;;;5050530;28;20416;-52
2021/06/05 12:44:14;;;;;;;52.23;33.93;;;;;;;;;;5049618;28;20420;-52
2021/06/05 12:46:39;;;;;;;52.57;32.53;;;;;;;;;;5049818;28;20459;-51
2021/06/05 12:49:15;;;;;;;50.03;33.73;;;;;;;;;;5051073;28;20846;-52
2021/06/05 12:51:45;;;;;;;61.53;38.60;;;;;;;;;;5051337;28;20466;-52
2021/06/05 12:54:22;;;;;;;62.83;38.90;;;;;;;;;;5051449;28;20422;-52
2021/06/05 12:56:48;;;;;;;56.80;37.33;;;;;;;;;;5051569;28;20424;-51
2021/06/05 12:59:29;;;;;;;59.57;40.37;;;;;;;;;;5049798;28;20429;-52
2021/06/05 13:01:55;;;;;;;58.10;40.80;;;;;;;;;;5051043;28;21004;-51
2021/06/05 13:04:27;;;;;;;53.20;36.87;;;;;;;;;;5051428;28;20398;-51
2021/06/05 13:06:58;;;;;;;56.07;40.37;;;;;;;;;;5051484;28;20488;-51
2021/06/05 13:09:24;;;;;;;61.30;42.43;;;;;;;;;;5051450;28;20460;-52
2021/06/05 13:11:52;;;;;;;56.83;40.00;;;;;;;;;;5050842;28;20423;-52
2021/06/05 13:14:23;;;;;;;61.37;40.03;;;;;;;;;;5051417;28;20413;-52
2021/06/05 13:17:05;;;;;;;77.97;43.07;;;;;;;;;;5050606;28;20409;-51
2021/06/05 13:19:31;;;;;;;73.43;46.13;;;;;;;;;;5051145;28;20794;-51
2021/06/05 13:22:09;;;;;;;67.10;44.00;;;;;;;;;;5050820;28;20942;-51
2021/06/05 13:24:35;;;;;;;63.67;41.00;;;;;;;;;;5050777;28;20819;-51
2021/06/05 13:27:22;;;;;;;62.90;42.33;;;;;;;;;;5050106;28;20409;-52
2021/06/05 13:29:49;;;;;;;77.83;45.40;;;;;;;;;;5050819;28;20483;-51
2021/06/05 13:32:21;;;;;;;76.13;47.00;;;;;;;;;;5050426;28;20560;-52
2021/06/05 13:34:47;;;;;;;81.20;46.70;;;;;;;;;;5050597;28;20451;-51
2021/06/05 13:37:16;;;;;;;75.17;47.57;;;;;;;;;;5050652;28;20405;-52
2021/06/05 13:39:42;;;;;;;77.67;49.33;;;;;;;;;;5050700;28;20425;-51
2021/06/05 13:42:08;;;;;;;76.43;50.27;;;;;;;;;;5050379;28;20424;-51
2021/06/05 13:44:36;;;;;;;86.63;51.30;;;;;;;;;;5050743;28;20405;-52
2021/06/05 13:47:02;;;;;;;92.20;53.03;;;;;;;;;;5050533;28;20397;-52
2021/06/05 13:49:28;;;;;;;93.63;54.00;;;;;;;;;;5050537;28;20437;-52
2021/06/05 13:51:54;;;;;;;94.50;51.87;;;;;;;;;;5050434;28;20453;-52
2021/06/05 13:54:19;;;;;;;90.63;54.00;;;;;;;;;;5050372;28;20882;-52
2021/06/05 13:56:45;;;;;;;96.03;56.50;;;;;;;;;;5050555;28;20394;-51
2021/06/05 13:59:15;;;;;;;88.93;54.93;;;;;;;;;;5050788;28;20417;-51
2021/06/05 14:01:40;;;;;;;88.80;53.67;;;;;;;;;;5050401;28;20428;-52
2021/06/05 14:04:07;;;;;;;85.37;53.10;;;;;;;;;;5050202;28;20785;-51
2021/06/05 14:06:33;;;;;;;91.60;52.57;;;;;;;;;;5050477;28;20477;-52
2021/06/05 14:08:59;;;;;;;83.30;53.00;;;;;;;;;;5050463;28;20520;-52
2021/06/05 14:11:25;;;;;;;89.03;52.50;;;;;;;;;;5050296;28;20532;-52
2021/06/05 14:13:52;;;;;;;90.20;54.00;;;;;;;;;;5050239;28;20405;-52
2021/06/05 14:16:19;;;;;;;88.93;54.83;;;;;;;;;;5050391;28;20429;-53
2021/06/05 14:18:45;;;;;;;94.53;56.40;;;;;;;;;;5050123;28;20409;-51
2021/06/05 14:21:12;;;;;;;93.77;57.70;;;;;;;;;;5050373;28;20492;-53
2021/06/05 14:23:38;;;;;;;86.50;55.80;;;;;;;;;;5050298;28;20815;-52
2021/06/05 14:26:08;;;;;;;90.37;54.83;;;;;;;;;;5050130;28;20756;-51